sensor_id;sensor_type;location;lat;lon;timestamp;temperature;humidity
29849;DHT22;16728;50.832;5.590;2023-05-07T00:02:12;15.80;99.90
29849;DHT22;16728;50.832;5.590;2023-05-07T00:05:13;15.90;99.90
29849;DHT22;16728;50.832;5.590;2023-05-07T00:08:16;15.90;99.90
29849;DHT22;16728;50.832;5.590;2023-05-07T00:11:18;15.80;99.90
29849;DHT22;16728;50.832;5.590;2023-05-07T00:14:20;15.80;99.90
29849;DHT22;16728;50.832;5.590;2023-05-07T00:17:22;15.70;99.90
29849;DHT22;16728;50.832;5.590;2023-05-07T00:20:25;15.80;99.90
29849;DHT22;16728;50.832;5.590;2023-05-07T00:23:27;15.70;99.90
29849;DHT22;16728;50.832;5.590;2023-05-07T00:26:29;15.80;99.90
29849;DHT22;16728;50.832;5.590;2023-05-07T00:29:31;15.90;99.90
29849;DHT22;16728;50.832;5.590;2023-05-07T00:32:33;16.00;99.90
29849;DHT22;16728;50.832;5.590;2023-05-07T00:35:35;15.90;99.90
29849;DHT22;16728;50.832;5.590;2023-05-07T00:38:37;15.90;99.90
29849;DHT22;16728;50.832;5.590;2023-05-07T00:41:40;16.00;99.90
29849;DHT22;16728;50.832;5.590;2023-05-07T00:44:44;16.00;99.90
29849;DHT22;16728;50.832;5.590;2023-05-07T00:47:46;15.90;99.90
29849;DHT22;16728;50.832;5.590;2023-05-07T00:50:48;15.90;99.90
29849;DHT22;16728;50.832;5.590;2023-05-07T00:53:50;15.90;99.90
29849;DHT22;16728;50.832;5.590;2023-05-07T00:56:52;15.70;99.90
29849;DHT22;16728;50.832;5.590;2023-05-07T00:59:54;15.70;99.90
29849;DHT22;16728;50.832;5.590;2023-05-07T01:02:56;15.80;99.90
29849;DHT22;16728;50.832;5.590;2023-05-07T01:06:00;15.80;99.90
29849;DHT22;16728;50.832;5.590;2023-05-07T01:09:02;15.80;99.90
29849;DHT22;16728;50.832;5.590;2023-05-07T01:12:06;15.80;99.90
29849;DHT22;16728;50.832;5.590;2023-05-07T01:15:09;15.80;99.90
29849;DHT22;16728;50.832;5.590;2023-05-07T01:18:11;15.80;99.90
29849;DHT22;16728;50.832;5.590;2023-05-07T01:21:15;15.80;99.90
29849;DHT22;16728;50.832;5.590;2023-05-07T01:24:24;15.80;99.90
29849;DHT22;16728;50.832;5.590;2023-05-07T01:27:26;15.80;99.90
29849;DHT22;16728;50.832;5.590;2023-05-07T01:30:30;15.90;99.90
29849;DHT22;16728;50.832;5.590;2023-05-07T01:33:35;16.00;99.90
29849;DHT22;16728;50.832;5.590;2023-05-07T01:36:42;15.90;99.90
29849;DHT22;16728;50.832;5.590;2023-05-07T01:39:44;15.80;99.90
29849;DHT22;16728;50.832;5.590;2023-05-07T01:42:48;15.70;99.90
29849;DHT22;16728;50.832;5.590;2023-05-07T01:45:51;15.70;99.90
29849;DHT22;16728;50.832;5.590;2023-05-07T01:48:55;15.60;99.90
29849;DHT22;16728;50.832;5.590;2023-05-07T01:51:58;15.70;99.90
29849;DHT22;16728;50.832;5.590;2023-05-07T01:55:03;15.60;99.90
29849;DHT22;16728;50.832;5.590;2023-05-07T01:58:06;15.60;99.90
29849;DHT22;16728;50.832;5.590;2023-05-07T02:01:08;15.70;99.90
29849;DHT22;16728;50.832;5.590;2023-05-07T02:04:10;15.60;99.90
29849;DHT22;16728;50.832;5.590;2023-05-07T02:07:12;15.50;99.90
29849;DHT22;16728;50.832;5.590;2023-05-07T02:10:14;15.50;99.90
29849;DHT22;16728;50.832;5.590;2023-05-07T02:13:17;15.50;99.90
29849;DHT22;16728;50.832;5.590;2023-05-07T02:16:19;15.50;99.90
29849;DHT22;16728;50.832;5.590;2023-05-07T02:19:21;15.50;99.90
29849;DHT22;16728;50.832;5.590;2023-05-07T02:22:23;15.60;99.90
29849;DHT22;16728;50.832;5.590;2023-05-07T02:25:25;15.70;99.90
29849;DHT22;16728;50.832;5.590;2023-05-07T02:28:27;15.60;99.90
29849;DHT22;16728;50.832;5.590;2023-05-07T02:31:30;15.60;99.90
29849;DHT22;16728;50.832;5.590;2023-05-07T02:34:32;15.50;99.90
29849;DHT22;16728;50.832;5.590;2023-05-07T02:37:34;15.60;99.90
29849;DHT22;16728;50.832;5.590;2023-05-07T02:40:37;15.60;99.90
29849;DHT22;16728;50.832;5.590;2023-05-07T02:43:41;15.40;99.90
29849;DHT22;16728;50.832;5.590;2023-05-07T02:46:44;15.40;99.90
29849;DHT22;16728;50.832;5.590;2023-05-07T02:49:47;15.40;99.90
29849;DHT22;16728;50.832;5.590;2023-05-07T02:52:49;15.50;99.90
29849;DHT22;16728;50.832;5.590;2023-05-07T02:55:53;15.50;99.90
29849;DHT22;16728;50.832;5.590;2023-05-07T02:58:55;15.50;99.90
29849;DHT22;16728;50.832;5.590;2023-05-07T03:01:57;15.40;99.90
29849;DHT22;16728;50.832;5.590;2023-05-07T03:04:59;15.40;99.90
29849;DHT22;16728;50.832;5.590;2023-05-07T03:08:04;15.30;99.90
29849;DHT22;16728;50.832;5.590;2023-05-07T03:11:06;15.50;99.90
29849;DHT22;16728;50.832;5.590;2023-05-07T03:14:08;15.40;99.90
29849;DHT22;16728;50.832;5.590;2023-05-07T03:17:10;15.30;99.90
29849;DHT22;16728;50.832;5.590;2023-05-07T03:20:12;15.30;99.90
29849;DHT22;16728;50.832;5.590;2023-05-07T03:23:15;15.30;99.90
29849;DHT22;16728;50.832;5.590;2023-05-07T03:26:17;15.30;99.90
29849;DHT22;16728;50.832;5.590;2023-05-07T03:29:19;15.00;99.90
29849;DHT22;16728;50.832;5.590;2023-05-07T03:32:21;15.00;99.90
29849;DHT22;16728;50.832;5.590;2023-05-07T03:35:23;15.00;99.90
29849;DHT22;16728;50.832;5.590;2023-05-07T03:38:26;15.10;99.90
29849;DHT22;16728;50.832;5.590;2023-05-07T03:41:28;15.30;99.90
29849;DHT22;16728;50.832;5.590;2023-05-07T03:44:36;15.30;99.90
29849;DHT22;16728;50.832;5.590;2023-05-07T03:47:37;15.20;99.90
29849;DHT22;16728;50.832;5.590;2023-05-07T03:50:40;15.10;99.90
29849;DHT22;16728;50.832;5.590;2023-05-07T03:53:42;15.10;99.90
29849;DHT22;16728;50.832;5.590;2023-05-07T03:56:45;15.20;99.90
29849;DHT22;16728;50.832;5.590;2023-05-07T03:59:47;15.20;99.90
29849;DHT22;16728;50.832;5.590;2023-05-07T04:02:49;15.20;99.90
29849;DHT22;16728;50.832;5.590;2023-05-07T04:05:51;15.30;99.90
29849;DHT22;16728;50.832;5.590;2023-05-07T04:08:53;15.10;99.90
29849;DHT22;16728;50.832;5.590;2023-05-07T04:11:55;15.10;99.90
29849;DHT22;16728;50.832;5.590;2023-05-07T04:14:57;15.20;99.90
29849;DHT22;16728;50.832;5.590;2023-05-07T04:17:59;15.30;99.90
29849;DHT22;16728;50.832;5.590;2023-05-07T04:21:01;15.40;99.90
29849;DHT22;16728;50.832;5.590;2023-05-07T04:24:04;15.30;99.90
29849;DHT22;16728;50.832;5.590;2023-05-07T04:27:05;15.30;99.90
29849;DHT22;16728;50.832;5.590;2023-05-07T04:30:08;15.20;99.90
29849;DHT22;16728;50.832;5.590;2023-05-07T04:33:10;15.20;99.90
29849;DHT22;16728;50.832;5.590;2023-05-07T04:36:13;15.10;99.90
29849;DHT22;16728;50.832;5.590;2023-05-07T04:39:15;15.10;99.90
29849;DHT22;16728;50.832;5.590;2023-05-07T04:42:17;15.10;99.90
29849;DHT22;16728;50.832;5.590;2023-05-07T04:45:21;15.20;99.90
29849;DHT22;16728;50.832;5.590;2023-05-07T04:48:23;15.30;99.90
29849;DHT22;16728;50.832;5.590;2023-05-07T04:51:25;15.20;99.90
29849;DHT22;16728;50.832;5.590;2023-05-07T04:54:27;15.30;99.90
29849;DHT22;16728;50.832;5.590;2023-05-07T04:57:30;15.20;99.90
29849;DHT22;16728;50.832;5.590;2023-05-07T05:00:32;15.30;99.90
29849;DHT22;16728;50.832;5.590;2023-05-07T05:03:35;15.50;99.90
29849;DHT22;16728;50.832;5.590;2023-05-07T05:06:37;15.60;99.90
29849;DHT22;16728;50.832;5.590;2023-05-07T05:09:43;15.60;99.90
29849;DHT22;16728;50.832;5.590;2023-05-07T05:12:46;15.50;99.90
29849;DHT22;16728;50.832;5.590;2023-05-07T05:15:48;15.50;99.90
29849;DHT22;16728;50.832;5.590;2023-05-07T05:18:50;15.50;99.90
29849;DHT22;16728;50.832;5.590;2023-05-07T05:21:53;15.50;99.90
29849;DHT22;16728;50.832;5.590;2023-05-07T05:24:55;15.40;99.90
29849;DHT22;16728;50.832;5.590;2023-05-07T05:27:57;15.40;99.90
29849;DHT22;16728;50.832;5.590;2023-05-07T05:30:59;15.40;99.90
29849;DHT22;16728;50.832;5.590;2023-05-07T05:34:02;15.40;99.90
29849;DHT22;16728;50.832;5.590;2023-05-07T05:37:04;15.50;99.90
29849;DHT22;16728;50.832;5.590;2023-05-07T05:40:06;15.50;99.90
29849;DHT22;16728;50.832;5.590;2023-05-07T05:43:08;15.50;99.90
29849;DHT22;16728;50.832;5.590;2023-05-07T05:46:12;15.50;99.90
29849;DHT22;16728;50.832;5.590;2023-05-07T05:49:13;15.50;99.90
29849;DHT22;16728;50.832;5.590;2023-05-07T05:52:15;15.60;99.90
29849;DHT22;16728;50.832;5.590;2023-05-07T05:55:18;15.70;99.90
29849;DHT22;16728;50.832;5.590;2023-05-07T05:58:22;15.70;99.90
29849;DHT22;16728;50.832;5.590;2023-05-07T06:01:24;15.70;99.90
29849;DHT22;16728;50.832;5.590;2023-05-07T06:04:27;15.70;99.90
29849;DHT22;16728;50.832;5.590;2023-05-07T06:07:29;15.70;99.90
29849;DHT22;16728;50.832;5.590;2023-05-07T06:10:32;15.70;99.90
29849;DHT22;16728;50.832;5.590;2023-05-07T06:13:33;15.70;99.90
29849;DHT22;16728;50.832;5.590;2023-05-07T06:16:37;15.80;99.90
29849;DHT22;16728;50.832;5.590;2023-05-07T06:19:39;15.80;99.90
29849;DHT22;16728;50.832;5.590;2023-05-07T06:22:42;15.80;99.90
29849;DHT22;16728;50.832;5.590;2023-05-07T06:25:50;15.90;99.90
29849;DHT22;16728;50.832;5.590;2023-05-07T06:28:52;15.90;99.90
29849;DHT22;16728;50.832;5.590;2023-05-07T06:31:54;16.00;99.90
29849;DHT22;16728;50.832;5.590;2023-05-07T06:34:58;16.10;99.90
29849;DHT22;16728;50.832;5.590;2023-05-07T06:38:00;16.20;99.90
29849;DHT22;16728;50.832;5.590;2023-05-07T06:41:05;16.20;99.90
29849;DHT22;16728;50.832;5.590;2023-05-07T06:44:07;16.30;99.90
29849;DHT22;16728;50.832;5.590;2023-05-07T06:47:10;16.30;99.90
29849;DHT22;16728;50.832;5.590;2023-05-07T06:50:16;16.40;99.90
29849;DHT22;16728;50.832;5.590;2023-05-07T06:53:18;16.40;99.90
29849;DHT22;16728;50.832;5.590;2023-05-07T06:56:20;16.50;99.90
29849;DHT22;16728;50.832;5.590;2023-05-07T06:59:23;16.60;99.90
29849;DHT22;16728;50.832;5.590;2023-05-07T07:02:25;16.70;99.90
29849;DHT22;16728;50.832;5.590;2023-05-07T07:05:27;16.90;99.90
29849;DHT22;16728;50.832;5.590;2023-05-07T07:08:29;17.00;99.90
29849;DHT22;16728;50.832;5.590;2023-05-07T07:11:31;17.10;99.90
29849;DHT22;16728;50.832;5.590;2023-05-07T07:14:33;17.20;99.90
29849;DHT22;16728;50.832;5.590;2023-05-07T07:17:35;17.30;99.90
29849;DHT22;16728;50.832;5.590;2023-05-07T07:20:37;17.50;99.90
29849;DHT22;16728;50.832;5.590;2023-05-07T07:23:40;17.60;99.90
29849;DHT22;16728;50.832;5.590;2023-05-07T07:26:42;17.70;99.90
29849;DHT22;16728;50.832;5.590;2023-05-07T07:29:45;17.90;99.90
29849;DHT22;16728;50.832;5.590;2023-05-07T07:32:47;17.90;99.90
29849;DHT22;16728;50.832;5.590;2023-05-07T07:35:49;18.00;99.90
29849;DHT22;16728;50.832;5.590;2023-05-07T07:38:52;18.10;99.90
29849;DHT22;16728;50.832;5.590;2023-05-07T07:41:56;18.00;99.90
29849;DHT22;16728;50.832;5.590;2023-05-07T07:44:59;18.10;99.90
29849;DHT22;16728;50.832;5.590;2023-05-07T07:48:05;18.10;99.90
29849;DHT22;16728;50.832;5.590;2023-05-07T07:51:07;18.20;99.90
29849;DHT22;16728;50.832;5.590;2023-05-07T07:54:10;18.20;99.90
29849;DHT22;16728;50.832;5.590;2023-05-07T07:57:12;18.20;99.90
29849;DHT22;16728;50.832;5.590;2023-05-07T08:00:14;18.30;99.90
29849;DHT22;16728;50.832;5.590;2023-05-07T08:03:17;18.40;99.90
29849;DHT22;16728;50.832;5.590;2023-05-07T08:06:19;18.50;99.90
29849;DHT22;16728;50.832;5.590;2023-05-07T08:09:21;18.50;99.90
29849;DHT22;16728;50.832;5.590;2023-05-07T08:12:26;18.60;99.90
29849;DHT22;16728;50.832;5.590;2023-05-07T08:15:28;18.70;99.90
29849;DHT22;16728;50.832;5.590;2023-05-07T08:18:30;18.80;99.90
29849;DHT22;16728;50.832;5.590;2023-05-07T08:21:32;18.90;99.90
29849;DHT22;16728;50.832;5.590;2023-05-07T08:24:35;19.10;99.90
29849;DHT22;16728;50.832;5.590;2023-05-07T08:27:37;19.10;99.90
29849;DHT22;16728;50.832;5.590;2023-05-07T08:30:40;19.20;99.90
29849;DHT22;16728;50.832;5.590;2023-05-07T08:33:42;19.30;99.90
29849;DHT22;16728;50.832;5.590;2023-05-07T08:36:44;19.40;99.90
29849;DHT22;16728;50.832;5.590;2023-05-07T08:39:48;19.50;99.90
29849;DHT22;16728;50.832;5.590;2023-05-07T08:42:53;19.50;99.90
29849;DHT22;16728;50.832;5.590;2023-05-07T08:45:55;19.60;99.90
29849;DHT22;16728;50.832;5.590;2023-05-07T08:49:00;19.70;99.90
29849;DHT22;16728;50.832;5.590;2023-05-07T08:52:02;19.80;99.90
29849;DHT22;16728;50.832;5.590;2023-05-07T08:55:11;19.80;99.90
29849;DHT22;16728;50.832;5.590;2023-05-07T08:58:14;19.80;99.90
29849;DHT22;16728;50.832;5.590;2023-05-07T09:01:17;19.90;99.90
29849;DHT22;16728;50.832;5.590;2023-05-07T09:04:19;19.90;99.90
29849;DHT22;16728;50.832;5.590;2023-05-07T09:07:22;19.90;99.90
29849;DHT22;16728;50.832;5.590;2023-05-07T09:10:25;20.00;99.90
29849;DHT22;16728;50.832;5.590;2023-05-07T09:13:30;20.10;99.90
29849;DHT22;16728;50.832;5.590;2023-05-07T09:16:32;20.10;99.90
29849;DHT22;16728;50.832;5.590;2023-05-07T09:19:34;20.10;99.90
29849;DHT22;16728;50.832;5.590;2023-05-07T09:22:39;20.00;99.90
29849;DHT22;16728;50.832;5.590;2023-05-07T09:25:42;20.00;99.90
29849;DHT22;16728;50.832;5.590;2023-05-07T09:28:44;19.90;99.90
29849;DHT22;16728;50.832;5.590;2023-05-07T09:31:46;20.00;99.90
29849;DHT22;16728;50.832;5.590;2023-05-07T09:34:48;20.00;99.90
29849;DHT22;16728;50.832;5.590;2023-05-07T09:37:53;20.00;99.90
29849;DHT22;16728;50.832;5.590;2023-05-07T09:41:06;19.90;99.90
29849;DHT22;16728;50.832;5.590;2023-05-07T09:44:11;20.00;99.90
29849;DHT22;16728;50.832;5.590;2023-05-07T09:47:19;19.90;99.90
29849;DHT22;16728;50.832;5.590;2023-05-07T09:50:30;20.00;99.90
29849;DHT22;16728;50.832;5.590;2023-05-07T09:53:34;20.00;99.90
29849;DHT22;16728;50.832;5.590;2023-05-07T09:56:37;20.00;99.90
29849;DHT22;16728;50.832;5.590;2023-05-07T09:59:42;20.00;99.90
29849;DHT22;16728;50.832;5.590;2023-05-07T10:02:49;20.00;99.90
29849;DHT22;16728;50.832;5.590;2023-05-07T10:05:53;19.90;99.90
29849;DHT22;16728;50.832;5.590;2023-05-07T10:08:55;19.90;99.90
29849;DHT22;16728;50.832;5.590;2023-05-07T10:11:58;19.90;99.90
29849;DHT22;16728;50.832;5.590;2023-05-07T10:15:01;19.80;99.90
29849;DHT22;16728;50.832;5.590;2023-05-07T10:18:04;19.70;99.90
29849;DHT22;16728;50.832;5.590;2023-05-07T10:24:32;19.70;99.90
29849;DHT22;16728;50.832;5.590;2023-05-07T10:27:36;19.70;99.90
29849;DHT22;16728;50.832;5.590;2023-05-07T10:34:21;19.70;99.90
29849;DHT22;16728;50.832;5.590;2023-05-07T10:37:25;19.60;99.90
29849;DHT22;16728;50.832;5.590;2023-05-07T10:40:27;19.60;99.90
29849;DHT22;16728;50.832;5.590;2023-05-07T10:43:43;19.60;99.90
29849;DHT22;16728;50.832;5.590;2023-05-07T10:47:09;19.50;99.90
29849;DHT22;16728;50.832;5.590;2023-05-07T11:06:15;19.30;99.90
29849;DHT22;16728;50.832;5.590;2023-05-07T11:09:17;19.30;99.90
29849;DHT22;16728;50.832;5.590;2023-05-07T11:15:45;19.30;99.90
29849;DHT22;16728;50.832;5.590;2023-05-07T11:21:51;19.20;99.90
29849;DHT22;16728;50.832;5.590;2023-05-07T11:24:53;19.20;99.90
29849;DHT22;16728;50.832;5.590;2023-05-07T11:27:55;19.10;99.90
29849;DHT22;16728;50.832;5.590;2023-05-07T11:31:00;19.10;99.90
29849;DHT22;16728;50.832;5.590;2023-05-07T11:34:03;19.10;99.90
29849;DHT22;16728;50.832;5.590;2023-05-07T11:37:07;19.10;99.90
29849;DHT22;16728;50.832;5.590;2023-05-07T11:40:09;19.00;99.90
29849;DHT22;16728;50.832;5.590;2023-05-07T11:43:16;19.00;99.90
29849;DHT22;16728;50.832;5.590;2023-05-07T11:46:27;19.00;99.90
29849;DHT22;16728;50.832;5.590;2023-05-07T11:49:30;19.00;99.90
29849;DHT22;16728;50.832;5.590;2023-05-07T11:52:31;19.00;99.90
29849;DHT22;16728;50.832;5.590;2023-05-07T11:55:34;18.90;99.90
29849;DHT22;16728;50.832;5.590;2023-05-07T11:58:36;19.00;99.90
29849;DHT22;16728;50.832;5.590;2023-05-07T12:01:45;19.00;99.90
29849;DHT22;16728;50.832;5.590;2023-05-07T12:04:48;19.00;99.90
29849;DHT22;16728;50.832;5.590;2023-05-07T12:07:58;18.90;99.90
29849;DHT22;16728;50.832;5.590;2023-05-07T12:11:00;18.90;99.90
29849;DHT22;16728;50.832;5.590;2023-05-07T12:14:02;18.90;99.90
29849;DHT22;16728;50.832;5.590;2023-05-07T12:17:07;18.80;99.90
29849;DHT22;16728;50.832;5.590;2023-05-07T12:20:10;18.80;99.90
29849;DHT22;16728;50.832;5.590;2023-05-07T12:23:13;18.80;99.90
29849;DHT22;16728;50.832;5.590;2023-05-07T12:26:15;18.70;99.90
29849;DHT22;16728;50.832;5.590;2023-05-07T12:29:21;18.80;99.90
29849;DHT22;16728;50.832;5.590;2023-05-07T12:32:25;18.80;99.90
29849;DHT22;16728;50.832;5.590;2023-05-07T12:35:32;18.70;99.90
29849;DHT22;16728;50.832;5.590;2023-05-07T12:38:38;18.70;99.90
29849;DHT22;16728;50.832;5.590;2023-05-07T12:41:56;18.70;99.90
29849;DHT22;16728;50.832;5.590;2023-05-07T12:45:20;18.70;99.90
29849;DHT22;16728;50.832;5.590;2023-05-07T12:48:25;18.70;99.90
29849;DHT22;16728;50.832;5.590;2023-05-07T12:51:29;18.70;99.90
29849;DHT22;16728;50.832;5.590;2023-05-07T12:54:37;18.70;99.90
29849;DHT22;16728;50.832;5.590;2023-05-07T12:57:42;18.70;99.90
29849;DHT22;16728;50.832;5.590;2023-05-07T13:00:45;18.70;99.90
29849;DHT22;16728;50.832;5.590;2023-05-07T13:03:49;18.70;99.90
29849;DHT22;16728;50.832;5.590;2023-05-07T13:06:52;18.80;99.90
29849;DHT22;16728;50.832;5.590;2023-05-07T13:09:54;18.70;99.90
29849;DHT22;16728;50.832;5.590;2023-05-07T13:12:55;18.80;99.90
29849;DHT22;16728;50.832;5.590;2023-05-07T13:15:57;18.80;99.90
29849;DHT22;16728;50.832;5.590;2023-05-07T13:19:00;18.80;99.90
29849;DHT22;16728;50.832;5.590;2023-05-07T13:22:02;18.80;99.90
29849;DHT22;16728;50.832;5.590;2023-05-07T13:25:04;18.90;99.90
29849;DHT22;16728;50.832;5.590;2023-05-07T13:28:06;18.90;99.90
29849;DHT22;16728;50.832;5.590;2023-05-07T13:31:12;18.80;99.90
29849;DHT22;16728;50.832;5.590;2023-05-07T13:34:14;18.80;99.90
29849;DHT22;16728;50.832;5.590;2023-05-07T13:37:16;18.80;99.90
29849;DHT22;16728;50.832;5.590;2023-05-07T13:40:18;18.90;99.90
29849;DHT22;16728;50.832;5.590;2023-05-07T13:43:20;18.80;99.90
29849;DHT22;16728;50.832;5.590;2023-05-07T13:46:27;18.90;99.90
29849;DHT22;16728;50.832;5.590;2023-05-07T13:49:29;18.90;99.90
29849;DHT22;16728;50.832;5.590;2023-05-07T13:52:31;18.90;99.90
29849;DHT22;16728;50.832;5.590;2023-05-07T13:55:44;19.00;99.90
29849;DHT22;16728;50.832;5.590;2023-05-07T13:58:51;19.00;99.90
29849;DHT22;16728;50.832;5.590;2023-05-07T14:02:01;19.10;99.90
29849;DHT22;16728;50.832;5.590;2023-05-07T14:05:04;19.10;99.90
29849;DHT22;16728;50.832;5.590;2023-05-07T14:08:06;19.10;99.90
29849;DHT22;16728;50.832;5.590;2023-05-07T14:11:14;19.00;99.90
29849;DHT22;16728;50.832;5.590;2023-05-07T14:14:16;19.10;99.90
29849;DHT22;16728;50.832;5.590;2023-05-07T14:17:18;19.00;99.90
29849;DHT22;16728;50.832;5.590;2023-05-07T14:20:20;19.10;99.90
29849;DHT22;16728;50.832;5.590;2023-05-07T14:23:22;19.10;99.90
29849;DHT22;16728;50.832;5.590;2023-05-07T14:26:28;19.10;99.90
29849;DHT22;16728;50.832;5.590;2023-05-07T14:29:30;19.10;99.90
29849;DHT22;16728;50.832;5.590;2023-05-07T14:32:33;19.10;99.90
29849;DHT22;16728;50.832;5.590;2023-05-07T14:35:35;19.20;99.90
29849;DHT22;16728;50.832;5.590;2023-05-07T14:38:37;19.20;99.90
29849;DHT22;16728;50.832;5.590;2023-05-07T14:41:39;19.10;99.90
29849;DHT22;16728;50.832;5.590;2023-05-07T14:44:41;19.10;99.90
29849;DHT22;16728;50.832;5.590;2023-05-07T14:47:54;19.10;99.90
29849;DHT22;16728;50.832;5.590;2023-05-07T14:50:56;19.20;99.90
29849;DHT22;16728;50.832;5.590;2023-05-07T14:53:58;19.20;99.90
29849;DHT22;16728;50.832;5.590;2023-05-07T14:57:00;19.10;99.90
29849;DHT22;16728;50.832;5.590;2023-05-07T15:00:03;19.10;99.90
29849;DHT22;16728;50.832;5.590;2023-05-07T15:03:08;19.20;99.90
29849;DHT22;16728;50.832;5.590;2023-05-07T15:06:11;19.20;99.90
29849;DHT22;16728;50.832;5.590;2023-05-07T15:09:13;19.20;99.90
29849;DHT22;16728;50.832;5.590;2023-05-07T15:12:20;19.10;99.90
29849;DHT22;16728;50.832;5.590;2023-05-07T15:15:22;19.20;99.90
29849;DHT22;16728;50.832;5.590;2023-05-07T15:18:24;19.20;99.90
29849;DHT22;16728;50.832;5.590;2023-05-07T15:21:25;19.20;99.90
29849;DHT22;16728;50.832;5.590;2023-05-07T15:24:29;19.20;99.90
29849;DHT22;16728;50.832;5.590;2023-05-07T15:27:31;19.20;99.90
29849;DHT22;16728;50.832;5.590;2023-05-07T15:30:33;19.20;99.90
29849;DHT22;16728;50.832;5.590;2023-05-07T15:33:35;19.20;99.90
29849;DHT22;16728;50.832;5.590;2023-05-07T15:36:37;19.20;99.90
29849;DHT22;16728;50.832;5.590;2023-05-07T15:39:39;19.30;99.90
29849;DHT22;16728;50.832;5.590;2023-05-07T15:42:41;19.30;99.90
29849;DHT22;16728;50.832;5.590;2023-05-07T15:46:20;19.20;99.90
29849;DHT22;16728;50.832;5.590;2023-05-07T15:49:22;19.30;99.90
29849;DHT22;16728;50.832;5.590;2023-05-07T15:52:24;19.20;99.90
29849;DHT22;16728;50.832;5.590;2023-05-07T15:55:26;19.20;99.90
29849;DHT22;16728;50.832;5.590;2023-05-07T15:58:28;19.30;99.90
29849;DHT22;16728;50.832;5.590;2023-05-07T16:01:31;19.30;99.90
29849;DHT22;16728;50.832;5.590;2023-05-07T16:04:33;19.20;99.90
29849;DHT22;16728;50.832;5.590;2023-05-07T16:07:36;19.30;99.90
29849;DHT22;16728;50.832;5.590;2023-05-07T16:10:37;19.30;99.90
29849;DHT22;16728;50.832;5.590;2023-05-07T16:13:39;19.30;99.90
29849;DHT22;16728;50.832;5.590;2023-05-07T16:16:41;19.20;99.90
29849;DHT22;16728;50.832;5.590;2023-05-07T16:19:43;19.20;99.90
29849;DHT22;16728;50.832;5.590;2023-05-07T16:22:45;19.20;99.90
29849;DHT22;16728;50.832;5.590;2023-05-07T16:25:48;19.20;99.90
29849;DHT22;16728;50.832;5.590;2023-05-07T16:28:50;19.20;99.90
29849;DHT22;16728;50.832;5.590;2023-05-07T16:31:53;19.20;99.90
29849;DHT22;16728;50.832;5.590;2023-05-07T16:34:55;19.20;99.90
29849;DHT22;16728;50.832;5.590;2023-05-07T16:37:58;19.10;99.90
29849;DHT22;16728;50.832;5.590;2023-05-07T16:41:00;19.10;99.90
29849;DHT22;16728;50.832;5.590;2023-05-07T16:44:02;19.00;99.90
29849;DHT22;16728;50.832;5.590;2023-05-07T16:47:06;19.00;99.90
29849;DHT22;16728;50.832;5.590;2023-05-07T16:50:09;19.10;99.90
29849;DHT22;16728;50.832;5.590;2023-05-07T16:53:11;19.00;99.90
29849;DHT22;16728;50.832;5.590;2023-05-07T16:56:14;19.00;99.90
29849;DHT22;16728;50.832;5.590;2023-05-07T16:59:16;19.00;99.90
29849;DHT22;16728;50.832;5.590;2023-05-07T17:02:19;19.00;99.90
29849;DHT22;16728;50.832;5.590;2023-05-07T17:05:21;19.00;99.90
29849;DHT22;16728;50.832;5.590;2023-05-07T17:08:29;19.00;99.90
29849;DHT22;16728;50.832;5.590;2023-05-07T17:11:31;19.00;99.90
29849;DHT22;16728;50.832;5.590;2023-05-07T17:14:34;18.90;99.90
29849;DHT22;16728;50.832;5.590;2023-05-07T17:17:36;18.90;99.90
29849;DHT22;16728;50.832;5.590;2023-05-07T17:20:38;18.90;99.90
29849;DHT22;16728;50.832;5.590;2023-05-07T17:23:40;18.90;99.90
29849;DHT22;16728;50.832;5.590;2023-05-07T17:26:44;18.90;99.90
29849;DHT22;16728;50.832;5.590;2023-05-07T17:29:47;18.90;99.90
29849;DHT22;16728;50.832;5.590;2023-05-07T17:32:51;18.90;99.90
29849;DHT22;16728;50.832;5.590;2023-05-07T17:35:53;18.90;99.90
29849;DHT22;16728;50.832;5.590;2023-05-07T17:38:56;18.90;99.90
29849;DHT22;16728;50.832;5.590;2023-05-07T17:41:58;18.80;99.90
29849;DHT22;16728;50.832;5.590;2023-05-07T17:45:01;18.80;99.90
29849;DHT22;16728;50.832;5.590;2023-05-07T17:48:04;18.70;99.90
29849;DHT22;16728;50.832;5.590;2023-05-07T17:51:08;18.70;99.90
29849;DHT22;16728;50.832;5.590;2023-05-07T17:54:10;18.70;99.90
29849;DHT22;16728;50.832;5.590;2023-05-07T17:57:13;18.60;99.90
29849;DHT22;16728;50.832;5.590;2023-05-07T18:00:15;18.60;99.90
29849;DHT22;16728;50.832;5.590;2023-05-07T18:03:17;18.60;99.90
29849;DHT22;16728;50.832;5.590;2023-05-07T18:06:19;18.60;99.90
29849;DHT22;16728;50.832;5.590;2023-05-07T18:09:26;18.50;99.90
29849;DHT22;16728;50.832;5.590;2023-05-07T18:12:28;18.50;99.90
29849;DHT22;16728;50.832;5.590;2023-05-07T18:15:30;18.50;99.90
29849;DHT22;16728;50.832;5.590;2023-05-07T18:18:32;18.40;99.90
29849;DHT22;16728;50.832;5.590;2023-05-07T18:21:37;18.30;99.90
29849;DHT22;16728;50.832;5.590;2023-05-07T18:24:39;18.40;99.90
29849;DHT22;16728;50.832;5.590;2023-05-07T18:27:42;18.30;99.90
29849;DHT22;16728;50.832;5.590;2023-05-07T18:30:44;18.40;99.90
29849;DHT22;16728;50.832;5.590;2023-05-07T18:33:46;18.30;99.90
29849;DHT22;16728;50.832;5.590;2023-05-07T18:36:48;18.30;99.90
29849;DHT22;16728;50.832;5.590;2023-05-07T18:39:50;18.20;99.90
29849;DHT22;16728;50.832;5.590;2023-05-07T18:42:52;18.30;99.90
29849;DHT22;16728;50.832;5.590;2023-05-07T18:45:57;18.20;99.90
29849;DHT22;16728;50.832;5.590;2023-05-07T18:48:59;18.20;99.90
29849;DHT22;16728;50.832;5.590;2023-05-07T18:52:01;18.20;99.90
29849;DHT22;16728;50.832;5.590;2023-05-07T18:55:05;18.20;99.90
29849;DHT22;16728;50.832;5.590;2023-05-07T18:58:09;18.20;99.90
29849;DHT22;16728;50.832;5.590;2023-05-07T19:01:11;18.20;99.90
29849;DHT22;16728;50.832;5.590;2023-05-07T19:04:13;18.20;99.90
29849;DHT22;16728;50.832;5.590;2023-05-07T19:07:17;18.20;99.90
29849;DHT22;16728;50.832;5.590;2023-05-07T19:10:19;18.20;99.90
29849;DHT22;16728;50.832;5.590;2023-05-07T19:13:21;18.20;99.90
29849;DHT22;16728;50.832;5.590;2023-05-07T19:16:31;18.20;99.90
29849;DHT22;16728;50.832;5.590;2023-05-07T19:19:33;18.20;99.90
29849;DHT22;16728;50.832;5.590;2023-05-07T19:22:35;18.10;99.90
29849;DHT22;16728;50.832;5.590;2023-05-07T19:25:36;18.10;99.90
29849;DHT22;16728;50.832;5.590;2023-05-07T19:28:39;18.00;99.90
29849;DHT22;16728;50.832;5.590;2023-05-07T19:31:46;18.00;99.90
29849;DHT22;16728;50.832;5.590;2023-05-07T19:34:48;17.90;99.90
29849;DHT22;16728;50.832;5.590;2023-05-07T19:37:50;17.90;99.90
29849;DHT22;16728;50.832;5.590;2023-05-07T19:40:55;17.90;99.90
29849;DHT22;16728;50.832;5.590;2023-05-07T19:43:58;17.90;99.90
29849;DHT22;16728;50.832;5.590;2023-05-07T19:47:06;17.80;99.90